Dubois, Wyoming
Current Conditions -  °F | °C
As of 9:55 PM on Friday 19 Dec 2014 (Local Time) from KPNA Reporting Station
Overcast Overcast  
Wind Chill: 25°   Ceiling: 4700
Heat Index: 25°   Visibility: 10mi
Dew Point: 23°   Wind: 3mph
Humidity: 93%   Direction: 310°NW
Pressure: 30.08"   Gusts: NA
Location:  43.53°N, 109.63°W
Report Text: KPNA 200455Z AUTO 31003KT 10SM BKN047 OVC060 M04/M05 A3008 RMK AO2
Loading
Personal Weather Stations






























Interactive Weather Map New forecast layout! Learn more

10-Day Weather Forecast

Advertisements
Track Severe Weather on mobile